sensor_id;sensor_type;location;lat;lon;timestamp;P1;durP1;ratioP1;P2;durP2;ratioP2
57375;SDS011;44805;45.048;5.062;2022-12-18T11:27:51;28.38;;;12.10;;
57375;SDS011;44805;45.048;5.062;2022-12-18T12:23:55;21.60;;;9.77;;
57375;SDS011;44805;45.048;5.062;2022-12-18T12:38:55;18.38;;;9.15;;
57375;SDS011;44805;45.048;5.062;2022-12-18T13:07:15;18.88;;;9.00;;
57375;SDS011;44805;45.048;5.062;2022-12-18T13:12:55;17.95;;;9.10;;
57375;SDS011;44805;45.048;5.062;2022-12-18T13:18:22;17.08;;;8.93;;
57375;SDS011;44805;45.048;5.062;2022-12-18T13:20:53;16.20;;;8.70;;
57375;SDS011;44805;45.048;5.062;2022-12-18T13:26:27;18.63;;;7.72;;
57375;SDS011;44805;45.048;5.062;2022-12-18T13:29:08;17.83;;;8.63;;
57375;SDS011;44805;45.048;5.062;2022-12-18T13:52:15;4.35;;;1.60;;
57375;SDS011;44805;45.048;5.062;2022-12-18T13:55:05;6.43;;;1.90;;
57375;SDS011;44805;45.048;5.062;2022-12-18T13:58:12;6.15;;;2.17;;
57375;SDS011;44805;45.048;5.062;2022-12-18T14:00:43;5.13;;;1.85;;
57375;SDS011;44805;45.048;5.062;2022-12-18T14:03:27;5.68;;;2.47;;
57375;SDS011;44805;45.048;5.062;2022-12-18T14:06:15;6.53;;;2.05;;
57375;SDS011;44805;45.048;5.062;2022-12-18T14:09:00;6.05;;;1.80;;
57375;SDS011;44805;45.048;5.062;2022-12-18T14:11:37;6.38;;;1.70;;
57375;SDS011;44805;45.048;5.062;2022-12-18T14:17:25;6.50;;;2.15;;
57375;SDS011;44805;45.048;5.062;2022-12-18T14:20:14;5.80;;;2.00;;
57375;SDS011;44805;45.048;5.062;2022-12-18T14:23:24;5.35;;;1.80;;
57375;SDS011;44805;45.048;5.062;2022-12-18T14:26:21;5.10;;;2.00;;
57375;SDS011;44805;45.048;5.062;2022-12-18T14:28:57;5.93;;;1.80;;
57375;SDS011;44805;45.048;5.062;2022-12-18T14:31:36;5.80;;;2.03;;
57375;SDS011;44805;45.048;5.062;2022-12-18T14:34:34;7.45;;;2.10;;
57375;SDS011;44805;45.048;5.062;2022-12-18T14:37:18;4.78;;;2.15;;
57375;SDS011;44805;45.048;5.062;2022-12-18T14:40:11;7.35;;;2.17;;
57375;SDS011;44805;45.048;5.062;2022-12-18T14:42:57;6.78;;;3.42;;
57375;SDS011;44805;45.048;5.062;2022-12-18T14:45:40;6.40;;;2.43;;
57375;SDS011;44805;45.048;5.062;2022-12-18T14:48:31;4.65;;;1.90;;
57375;SDS011;44805;45.048;5.062;2022-12-18T14:51:26;4.07;;;1.83;;
57375;SDS011;44805;45.048;5.062;2022-12-18T14:54:14;8.43;;;2.63;;
57375;SDS011;44805;45.048;5.062;2022-12-18T14:56:47;8.98;;;2.47;;
57375;SDS011;44805;45.048;5.062;2022-12-18T15:02:26;8.38;;;2.13;;
57375;SDS011;44805;45.048;5.062;2022-12-18T15:05:05;7.88;;;2.10;;
57375;SDS011;44805;45.048;5.062;2022-12-18T15:08:00;6.03;;;2.28;;
57375;SDS011;44805;45.048;5.062;2022-12-18T15:10:56;7.28;;;2.72;;
57375;SDS011;44805;45.048;5.062;2022-12-18T15:13:22;5.43;;;2.53;;
57375;SDS011;44805;45.048;5.062;2022-12-18T15:15:49;5.75;;;2.50;;
57375;SDS011;44805;45.048;5.062;2022-12-18T15:18:16;5.53;;;2.28;;
57375;SDS011;44805;45.048;5.062;2022-12-18T15:21:07;6.65;;;2.72;;
57375;SDS011;44805;45.048;5.062;2022-12-18T15:23:53;6.38;;;2.85;;
57375;SDS011;44805;45.048;5.062;2022-12-18T15:26:24;5.90;;;2.63;;
57375;SDS011;44805;45.048;5.062;2022-12-18T15:28:51;6.68;;;2.50;;
57375;SDS011;44805;45.048;5.062;2022-12-18T15:36:32;6.22;;;2.40;;
57375;SDS011;44805;45.048;5.062;2022-12-18T15:39:01;6.55;;;2.55;;
57375;SDS011;44805;45.048;5.062;2022-12-18T15:41:51;7.10;;;2.92;;
57375;SDS011;44805;45.048;5.062;2022-12-18T15:45:01;6.13;;;2.10;;
57375;SDS011;44805;45.048;5.062;2022-12-18T15:48:21;7.03;;;2.30;;
57375;SDS011;44805;45.048;5.062;2022-12-18T15:50:54;5.20;;;2.20;;
57375;SDS011;44805;45.048;5.062;2022-12-18T15:54:09;4.40;;;1.63;;
57375;SDS011;44805;45.048;5.062;2022-12-18T15:56:39;5.47;;;2.35;;
57375;SDS011;44805;45.048;5.062;2022-12-18T15:59:23;5.45;;;2.22;;
57375;SDS011;44805;45.048;5.062;2022-12-18T16:01:50;8.40;;;3.10;;
57375;SDS011;44805;45.048;5.062;2022-12-18T16:06:47;7.35;;;3.20;;
57375;SDS011;44805;45.048;5.062;2022-12-18T16:09:13;8.38;;;3.33;;
57375;SDS011;44805;45.048;5.062;2022-12-18T16:14:43;7.47;;;3.22;;
57375;SDS011;44805;45.048;5.062;2022-12-18T16:17:10;7.20;;;3.50;;
57375;SDS011;44805;45.048;5.062;2022-12-18T16:19:36;9.07;;;4.20;;
57375;SDS011;44805;45.048;5.062;2022-12-18T16:22:16;7.63;;;3.70;;
57375;SDS011;44805;45.048;5.062;2022-12-18T21:15:57;8.05;;;2.90;;
